createdAt,value
2022-10-23T00:02:02.598Z,99925.94
2022-10-23T00:04:34.296Z,99923.34
2022-10-23T00:07:05.662Z,99919.81
2022-10-23T00:09:40.130Z,99922.41
2022-10-23T00:12:08.972Z,99926.72
2022-10-23T00:14:40.209Z,99915.47
2022-10-23T00:17:14.262Z,99922.34
2022-10-23T00:19:44.487Z,99921.47
2022-10-23T00:22:15.686Z,99924.00
2022-10-23T00:24:44.011Z,99924.84
2022-10-23T00:27:12.436Z,99920.50
2022-10-23T00:29:43.533Z,99920.44
2022-10-23T00:32:13.341Z,99920.44
2022-10-23T00:34:42.100Z,99923.84
2022-10-23T00:37:11.047Z,99928.16
2022-10-23T00:39:41.539Z,99923.75
2022-10-23T00:42:12.220Z,99928.97
2022-10-23T00:45:14.662Z,99928.88
2022-10-23T00:47:44.624Z,99930.56
2022-10-23T00:50:14.689Z,99927.06
2022-10-23T00:52:48.570Z,99928.81
2022-10-23T00:55:19.836Z,99927.91
2022-10-23T00:57:51.036Z,99927.81
2022-10-23T01:00:25.841Z,99925.22
2022-10-23T01:02:58.000Z,99926.91
2022-10-23T01:05:33.049Z,99918.22
2022-10-23T01:08:10.766Z,99919.09
2022-10-23T01:10:46.129Z,99913.91
2022-10-23T01:13:22.348Z,99912.19
2022-10-23T01:15:58.026Z,99916.50
2022-10-23T01:18:41.109Z,99912.13
2022-10-23T01:21:15.239Z,99903.38
2022-10-23T01:24:09.446Z,99906.91
2022-10-23T01:27:00.154Z,99906.84
2022-10-23T01:29:39.207Z,99900.75
2022-10-23T01:32:13.509Z,99909.41
2022-10-23T01:34:50.702Z,99899.00
2022-10-23T01:37:29.679Z,99902.47
2022-10-23T01:40:05.368Z,99891.16
2022-10-23T01:42:41.547Z,99887.66
2022-10-23T01:45:19.101Z,99893.72
2022-10-23T01:47:48.991Z,99891.94
2022-10-23T01:50:21.175Z,99884.06
2022-10-23T01:52:52.051Z,99889.25
2022-10-23T01:55:23.364Z,99881.44
2022-10-23T01:57:55.124Z,99876.19
2022-10-23T02:00:30.377Z,99871.84
2022-10-23T02:03:04.590Z,99863.16
2022-10-23T02:05:35.494Z,99867.47
2022-10-23T02:08:06.696Z,99855.28
2022-10-23T02:10:47.772Z,99859.66
2022-10-23T02:13:27.054Z,99847.47
2022-10-23T02:16:05.513Z,99846.63
2022-10-23T02:18:41.257Z,99834.44
2022-10-23T02:21:13.566Z,99835.34
2022-10-23T02:23:55.246Z,99838.88
2022-10-23T02:26:29.823Z,99835.34
2022-10-23T02:31:40.727Z,99825.78
2022-10-23T02:34:09.228Z,99836.22
2022-10-23T02:36:38.653Z,99830.13
2022-10-23T02:39:07.406Z,99827.53
2022-10-23T02:41:43.678Z,99831.88
2022-10-23T02:44:37.481Z,99824.03
2022-10-23T02:47:24.492Z,99819.66
2022-10-23T02:50:08.148Z,99818.81
2022-10-23T02:52:47.374Z,99812.72
2022-10-23T02:55:31.565Z,99803.19
2022-10-23T02:58:10.419Z,99806.63
2022-10-23T03:00:48.489Z,99801.41
2022-10-23T03:03:26.135Z,99798.81
2022-10-23T03:05:55.925Z,99806.63
2022-10-23T03:08:25.093Z,99797.09
2022-10-23T03:10:53.565Z,99801.41
2022-10-23T03:13:23.590Z,99797.91
2022-10-23T03:15:52.034Z,99799.69
2022-10-23T03:18:24.040Z,99791.00
2022-10-23T03:20:53.707Z,99784.06
2022-10-23T03:23:23.948Z,99785.78
2022-10-23T03:25:54.305Z,99780.56
2022-10-23T03:28:38.044Z,99778.84
2022-10-23T03:31:06.949Z,99773.63
2022-10-23T03:33:38.228Z,99765.81
2022-10-23T03:36:12.286Z,99761.44
2022-10-23T03:38:41.899Z,99768.41
2022-10-23T03:41:12.186Z,99756.22
2022-10-23T03:43:40.566Z,99763.22
2022-10-23T03:46:12.632Z,99756.22
2022-10-23T03:48:42.455Z,99750.13
2022-10-23T03:51:11.294Z,99749.25
2022-10-23T03:53:42.335Z,99753.63
2022-10-23T03:56:10.864Z,99749.25
2022-10-23T03:58:40.813Z,99750.91
2022-10-23T04:01:09.581Z,99750.91
2022-10-23T04:03:42.305Z,99744.88
2022-10-23T04:06:11.184Z,99744.81
2022-10-23T04:08:46.513Z,99737.84
2022-10-23T04:11:21.765Z,99735.25
2022-10-23T04:13:50.722Z,99730.03
2022-10-23T04:16:19.217Z,99726.59
2022-10-23T04:18:49.127Z,99726.59
2022-10-23T04:21:19.729Z,99723.94
2022-10-23T04:23:50.470Z,99738.66
2022-10-23T04:26:19.954Z,99739.56
2022-10-23T04:28:53.037Z,99738.66
2022-10-23T04:31:21.450Z,99736.94
2022-10-23T04:33:51.507Z,99732.63
2022-10-23T04:36:29.725Z,99738.66
2022-10-23T04:39:03.627Z,99736.94
2022-10-23T04:41:32.800Z,99725.69
2022-10-23T04:44:02.481Z,99731.75
2022-10-23T04:46:30.879Z,99725.69
2022-10-23T04:49:00.650Z,99720.47
2022-10-23T04:51:51.168Z,99723.03
2022-10-23T04:54:45.586Z,99721.28
2022-10-23T04:57:24.899Z,99716.91
2022-10-23T05:00:09.415Z,99708.19
2022-10-23T05:02:54.155Z,99712.53
2022-10-23T05:05:24.954Z,99709.09
2022-10-23T05:07:53.288Z,99698.66
2022-10-23T05:10:42.868Z,99702.09
2022-10-23T05:13:19.762Z,99696.91
2022-10-23T05:15:48.991Z,99700.38
2022-10-23T05:18:24.882Z,99694.28
2022-10-23T05:20:59.713Z,99699.44
2022-10-23T05:23:33.417Z,99695.06
2022-10-23T05:26:04.646Z,99697.66
2022-10-23T05:28:33.908Z,99694.16
2022-10-23T05:31:05.233Z,99695.91
2022-10-23T05:33:36.874Z,99693.28
2022-10-23T05:36:08.306Z,99696.78
2022-10-23T05:38:37.362Z,99693.28
2022-10-23T05:41:13.358Z,99691.56
2022-10-23T05:43:41.920Z,99692.41
2022-10-23T05:46:23.173Z,99695.88
2022-10-23T05:49:14.857Z,99687.19
2022-10-23T05:51:56.846Z,99689.78
2022-10-23T05:54:35.991Z,99681.94
2022-10-23T05:59:53.396Z,99671.47
2022-10-23T06:02:27.908Z,99672.28
2022-10-23T06:05:06.747Z,99673.19
2022-10-23T06:08:11.574Z,99658.38
2022-10-23T06:10:40.264Z,99660.06
2022-10-23T06:13:10.713Z,99649.63
2022-10-23T06:15:39.121Z,99654.00
2022-10-23T06:18:12.576Z,99651.41
2022-10-23T06:20:52.343Z,99641.88
2022-10-23T06:23:31.601Z,99641.06
2022-10-23T06:26:22.862Z,99641.91
2022-10-23T06:29:02.332Z,99639.31
2022-10-23T06:31:31.429Z,99637.59
2022-10-23T06:34:01.084Z,99629.81
2022-10-23T06:36:31.498Z,99636.78
2022-10-23T06:39:17.287Z,99633.34
2022-10-23T06:42:14.995Z,99634.19
2022-10-23T06:44:55.572Z,99641.16
2022-10-23T06:47:56.612Z,99631.56
2022-10-23T06:50:43.796Z,99635.94
2022-10-23T06:53:16.127Z,99634.28
2022-10-23T06:55:55.591Z,99635.16
2022-10-23T06:58:25.876Z,99638.66
2022-10-23T07:01:16.274Z,99640.41
2022-10-23T07:03:46.274Z,99639.59
2022-10-23T07:06:15.009Z,99628.34
2022-10-23T07:08:43.762Z,99643.13
2022-10-23T07:11:33.654Z,99627.50
2022-10-23T07:14:03.067Z,99629.28
2022-10-23T07:16:32.680Z,99621.50
2022-10-23T07:19:02.307Z,99626.72
2022-10-23T07:21:34.599Z,99620.69
2022-10-23T07:24:22.868Z,99623.34
2022-10-23T07:26:52.738Z,99620.78
2022-10-23T07:29:21.348Z,99622.56
2022-10-23T07:31:50.175Z,99620.78
2022-10-23T07:34:37.912Z,99613.88
2022-10-23T07:37:23.668Z,99615.59
2022-10-23T07:39:52.606Z,99618.28
2022-10-23T07:42:22.393Z,99620.06
2022-10-23T07:44:51.410Z,99619.22
2022-10-23T07:47:19.882Z,99622.66
2022-10-23T07:49:51.862Z,99622.72
2022-10-23T07:52:23.288Z,99621.00
2022-10-23T07:55:13.296Z,99604.53
2022-10-23T07:57:50.063Z,99602.81
2022-10-23T08:01:00.093Z,99608.91
2022-10-23T08:03:35.484Z,99610.66
2022-10-23T08:06:05.077Z,99600.25
2022-10-23T08:08:33.897Z,99601.13
2022-10-23T08:11:05.411Z,99593.38
2022-10-23T08:13:47.494Z,99600.34
2022-10-23T08:16:15.901Z,99594.38
2022-10-23T08:18:56.578Z,99590.94
2022-10-23T08:21:25.300Z,99591.00
2022-10-23T08:23:57.660Z,99586.75
2022-10-23T08:26:29.283Z,99583.31
2022-10-23T08:29:00.430Z,99591.22
2022-10-23T08:31:30.401Z,99584.31
2022-10-23T08:34:16.373Z,99578.31
2022-10-23T08:36:47.221Z,99562.72
2022-10-23T08:39:17.796Z,99572.38
2022-10-23T08:42:01.465Z,99571.56
2022-10-23T08:44:38.821Z,99568.19
2022-10-23T08:47:13.387Z,99564.84
2022-10-23T08:50:12.257Z,99577.97
2022-10-23T08:52:46.249Z,99575.44
2022-10-23T08:55:23.069Z,99573.81
2022-10-23T08:57:58.968Z,99570.41
2022-10-23T09:00:32.869Z,99556.63
2022-10-23T09:03:04.354Z,99554.09
2022-10-23T09:05:38.689Z,99550.69
2022-10-23T09:08:26.873Z,99549.94
2022-10-23T09:11:05.649Z,99548.28
2022-10-23T09:13:56.567Z,99544.06
2022-10-23T09:16:41.703Z,99544.13
2022-10-23T09:19:17.736Z,99540.72
2022-10-23T09:21:49.831Z,99542.50
2022-10-23T09:24:23.084Z,99541.72
2022-10-23T09:26:54.167Z,99538.34
2022-10-23T09:29:26.227Z,99532.31
2022-10-23T09:31:58.454Z,99526.28
2022-10-23T09:34:30.294Z,99524.59
2022-10-23T09:37:01.329Z,99508.09
2022-10-23T09:39:33.357Z,99509.88
2022-10-23T09:42:03.627Z,99507.31
2022-10-23T09:44:34.555Z,99497.75
2022-10-23T09:47:12.548Z,99497.84
2022-10-23T09:49:48.318Z,99489.16
2022-10-23T09:52:27.150Z,99476.09
2022-10-23T09:55:00.728Z,99485.72
2022-10-23T09:57:32.632Z,99493.59
2022-10-23T10:00:05.537Z,99491.00
2022-10-23T10:02:43.287Z,99489.31
2022-10-23T10:05:38.143Z,99484.97
2022-10-23T10:08:23.057Z,99476.28
2022-10-23T10:10:55.860Z,99481.53
2022-10-23T10:13:54.179Z,99478.06
2022-10-23T10:16:34.488Z,99479.00
2022-10-23T10:19:20.476Z,99466.84
2022-10-23T10:22:00.289Z,99469.50
2022-10-23T10:24:37.356Z,99467.84
2022-10-23T10:27:18.621Z,99460.88
2022-10-23T10:30:05.130Z,99453.97
2022-10-23T10:32:43.165Z,99456.69
2022-10-23T10:35:42.413Z,99468.00
2022-10-23T10:38:35.217Z,99448.03
2022-10-23T10:41:41.525Z,99438.50
2022-10-23T10:44:46.143Z,99436.72
2022-10-23T10:47:21.547Z,99428.06
2022-10-23T10:50:05.105Z,99424.63
2022-10-23T10:52:54.089Z,99429.94
2022-10-23T10:55:29.660Z,99422.97
2022-10-23T10:58:04.615Z,99414.28
2022-10-23T11:00:35.550Z,99404.72
2022-10-23T11:03:18.503Z,99403.88
2022-10-23T11:05:50.567Z,99407.38
2022-10-23T11:08:28.061Z,99404.78
2022-10-23T11:11:04.189Z,99402.22
2022-10-23T11:13:37.867Z,99400.47
2022-10-23T11:16:13.681Z,99383.94
2022-10-23T11:18:44.975Z,99386.59
2022-10-23T11:21:31.513Z,99383.16
2022-10-23T11:27:22.923Z,99363.13
2022-10-23T11:30:22.719Z,99355.28
2022-10-23T11:33:30.503Z,99350.09
2022-10-23T11:36:17.974Z,99349.22
2022-10-23T11:38:49.846Z,99339.72
2022-10-23T11:41:25.512Z,99338.00
2022-10-23T11:44:01.693Z,99319.75
2022-10-23T11:46:33.595Z,99319.78
2022-10-23T11:49:03.769Z,99313.69
2022-10-23T11:51:35.301Z,99311.09
2022-10-23T11:54:22.356Z,99302.41
2022-10-23T11:57:09.250Z,99314.66
2022-10-23T11:59:53.327Z,99322.53
2022-10-23T12:02:32.148Z,99304.22
2022-10-23T12:05:05.933Z,99309.47
2022-10-23T12:07:37.682Z,99313.00
2022-10-23T12:10:18.231Z,99302.53
2022-10-23T12:12:57.659Z,99292.16
2022-10-23T12:15:28.312Z,99293.03
2022-10-23T12:18:09.324Z,99284.38
2022-10-23T12:20:46.442Z,99274.78
2022-10-23T12:23:44.391Z,99277.41
2022-10-23T12:26:55.023Z,99273.94
2022-10-23T12:29:40.876Z,99282.69
2022-10-23T12:32:29.751Z,99263.53
2022-10-23T12:35:22.000Z,99256.63
2022-10-23T12:38:11.575Z,99244.44
2022-10-23T12:40:40.203Z,99227.91
2022-10-23T12:43:26.344Z,99227.94
2022-10-23T12:45:57.455Z,99226.22
2022-10-23T12:48:27.339Z,99226.25
2022-10-23T12:50:57.559Z,99219.31
2022-10-23T12:53:26.247Z,99214.97
2022-10-23T12:58:35.935Z,99202.84
2022-10-23T13:01:08.122Z,99217.69
2022-10-23T13:03:39.911Z,99201.13
2022-10-23T13:06:08.865Z,99192.47
2022-10-23T13:08:43.117Z,99186.34
2022-10-23T13:11:35.046Z,99189.03
2022-10-23T13:14:13.519Z,99197.75
2022-10-23T13:16:42.063Z,99188.19
2022-10-23T13:19:25.965Z,99184.72
2022-10-23T13:21:54.646Z,99181.19
2022-10-23T13:24:26.469Z,99176.00
2022-10-23T13:26:55.476Z,99176.00
2022-10-23T13:29:28.231Z,99180.38
2022-10-23T13:31:57.122Z,99176.00
2022-10-23T13:34:31.602Z,99175.13
2022-10-23T13:37:04.748Z,99172.53
2022-10-23T13:39:35.075Z,99165.53
2022-10-23T13:42:13.847Z,99166.41
2022-10-23T13:44:43.050Z,99170.78
2022-10-23T13:47:14.236Z,99159.44
2022-10-23T13:49:44.140Z,99143.72
2022-10-23T13:52:17.587Z,99136.72
2022-10-23T13:54:46.088Z,99136.72
2022-10-23T13:57:16.482Z,99135.84
2022-10-23T13:59:45.082Z,99135.84
2022-10-23T14:02:23.175Z,99134.13
2022-10-23T14:04:54.135Z,99116.66
2022-10-23T14:07:22.627Z,99125.41
2022-10-23T14:09:51.061Z,99126.28
2022-10-23T14:12:19.496Z,99125.41
2022-10-23T14:14:52.627Z,99114.94
2022-10-23T14:17:21.956Z,99108.81
2022-10-23T14:19:51.094Z,99106.19
2022-10-23T14:22:21.644Z,99094.84
2022-10-23T14:24:50.346Z,99091.34
2022-10-23T14:27:18.753Z,99102.72
2022-10-23T14:29:47.078Z,99098.34
2022-10-23T14:32:15.550Z,99103.56
2022-10-23T14:34:45.866Z,99109.66
2022-10-23T14:37:14.276Z,99093.09
2022-10-23T14:39:48.870Z,99101.81
2022-10-23T14:42:18.680Z,99097.47
2022-10-23T14:44:49.455Z,99093.09
2022-10-23T14:47:19.100Z,99080.00
2022-10-23T14:49:53.444Z,99080.88
2022-10-23T14:52:22.028Z,99079.13
2022-10-23T14:54:53.332Z,99068.66
2022-10-23T14:57:22.608Z,99066.91
2022-10-23T14:59:53.776Z,99065.13
2022-10-23T15:02:22.240Z,99057.28
2022-10-23T15:04:50.580Z,99055.53
2022-10-23T15:07:19.189Z,99038.97
2022-10-23T15:09:47.523Z,99039.84
2022-10-23T15:12:17.701Z,99028.50
2022-10-23T15:14:46.051Z,99038.97
2022-10-23T15:17:15.750Z,99028.50
2022-10-23T15:19:44.364Z,99044.19
2022-10-23T15:22:12.817Z,99044.19
2022-10-23T15:24:41.244Z,99040.72
2022-10-23T15:29:39.400Z,99066.03
2022-10-23T15:32:10.253Z,99080.84
2022-10-23T15:34:41.851Z,99097.34
2022-10-23T15:37:11.508Z,99074.66
2022-10-23T15:39:40.314Z,99088.66
2022-10-23T15:42:09.879Z,99096.47
2022-10-23T15:44:41.759Z,99087.75
2022-10-23T15:47:10.110Z,99078.13
2022-10-23T15:49:39.845Z,99072.91
2022-10-23T15:54:37.706Z,99058.06
2022-10-23T15:57:06.278Z,99080.72
2022-10-23T15:59:35.139Z,99106.88
2022-10-23T16:02:05.102Z,99113.84
2022-10-23T16:04:35.331Z,99099.91
2022-10-23T16:07:03.842Z,99103.38
2022-10-23T16:09:32.803Z,99103.34
2022-10-23T16:12:01.288Z,99096.38
2022-10-23T16:14:29.718Z,99100.72
2022-10-23T16:16:58.217Z,99093.72
2022-10-23T16:19:28.411Z,99092.84
2022-10-23T16:21:56.805Z,99109.38
2022-10-23T16:24:25.409Z,99113.75
2022-10-23T16:26:56.403Z,99113.75
2022-10-23T16:29:25.886Z,99119.84
2022-10-23T16:31:55.300Z,99131.19
2022-10-23T16:34:24.193Z,99153.00
2022-10-23T16:36:54.029Z,99152.09
2022-10-23T16:39:42.647Z,99155.56
2022-10-23T16:42:30.753Z,99157.28
2022-10-23T16:45:11.897Z,99172.13
2022-10-23T16:47:40.473Z,99180.84
2022-10-23T16:50:09.653Z,99172.97
2022-10-23T16:52:39.608Z,99166.00
2022-10-23T16:55:08.908Z,99157.25
2022-10-23T16:57:37.725Z,99159.00
2022-10-23T17:00:08.606Z,99160.75
2022-10-23T17:02:38.659Z,99168.56
2022-10-23T17:05:08.152Z,99168.53
2022-10-23T17:07:38.229Z,99187.72
2022-10-23T17:10:08.371Z,99199.94
2022-10-23T17:12:37.543Z,99215.63
2022-10-23T17:15:07.604Z,99223.44
2022-10-23T17:17:36.104Z,99239.97
2022-10-23T17:20:05.936Z,99250.44
2022-10-23T17:22:36.281Z,99267.84
2022-10-23T17:25:10.183Z,99253.91
2022-10-23T17:27:38.611Z,99242.56
2022-10-23T17:30:12.543Z,99202.44
2022-10-23T17:32:41.875Z,99164.94
2022-10-23T17:35:11.509Z,99150.97
2022-10-23T17:37:40.006Z,99148.38
2022-10-23T17:40:11.084Z,99116.06
2022-10-23T17:42:39.755Z,99124.75
2022-10-23T17:45:09.769Z,99102.09
2022-10-23T17:47:40.244Z,99095.13
2022-10-23T17:50:12.387Z,99111.66
2022-10-23T17:52:42.324Z,99112.53
2022-10-23T17:55:12.633Z,99100.34
2022-10-23T17:57:41.498Z,99101.19
2022-10-23T18:00:11.680Z,99102.94
2022-10-23T18:02:42.845Z,99109.91
2022-10-23T18:05:14.280Z,99124.72
2022-10-23T18:07:43.356Z,99127.31
2022-10-23T18:10:14.178Z,99135.16
2022-10-23T18:12:42.559Z,99112.53
2022-10-23T18:15:12.249Z,99119.47
2022-10-23T18:17:40.867Z,99118.59
2022-10-23T18:20:11.770Z,99122.06
2022-10-23T18:22:40.297Z,99109.00
2022-10-23T18:25:09.713Z,99101.16
2022-10-23T18:27:41.588Z,99109.84
2022-10-23T18:30:11.911Z,99093.31
2022-10-23T18:32:40.462Z,99091.53
2022-10-23T18:35:10.182Z,99071.53
2022-10-23T18:37:41.601Z,99079.38
2022-10-23T18:40:12.047Z,99076.75
2022-10-23T18:42:42.205Z,99066.31
2022-10-23T18:45:13.431Z,99071.53
2022-10-23T18:47:42.034Z,99069.78
2022-10-23T18:50:11.570Z,99062.78
2022-10-23T18:52:40.161Z,99066.25
2022-10-23T18:55:10.036Z,99065.41
2022-10-23T18:57:39.626Z,99059.28
2022-10-23T19:00:12.966Z,99059.28
2022-10-23T19:02:41.475Z,99050.56
2022-10-23T19:05:10.111Z,99055.75
2022-10-23T19:07:38.960Z,99048.78
2022-10-23T19:10:08.592Z,99058.38
2022-10-23T19:12:36.958Z,99050.53
2022-10-23T19:15:05.872Z,99035.72
2022-10-23T19:17:35.900Z,99027.88
2022-10-23T19:20:10.940Z,99031.38
2022-10-23T19:22:40.938Z,99027.00
2022-10-23T19:25:15.035Z,99026.13
2022-10-23T19:27:46.088Z,99043.50
2022-10-23T19:30:20.564Z,99029.56
2022-10-23T19:32:53.610Z,99037.41
2022-10-23T19:35:23.566Z,99032.16
2022-10-23T19:37:52.085Z,99032.16
2022-10-23T19:40:20.675Z,99034.75
2022-10-23T19:42:49.094Z,99030.38
2022-10-23T19:45:18.030Z,99030.38
2022-10-23T19:47:47.846Z,99029.47
2022-10-23T19:50:17.680Z,99025.13
2022-10-23T19:52:46.235Z,99017.31
2022-10-23T19:55:14.916Z,99021.66
2022-10-23T19:57:43.614Z,99039.09
2022-10-23T20:00:14.579Z,99038.22
2022-10-23T20:02:44.491Z,99031.22
2022-10-23T20:05:13.008Z,99033.00
2022-10-23T20:07:45.654Z,99033.84
2022-10-23T20:10:14.239Z,99032.09
2022-10-23T20:12:47.445Z,99027.72
2022-10-23T20:15:25.456Z,99027.72
2022-10-23T20:17:53.898Z,99025.97
2022-10-23T20:20:22.930Z,99028.56
2022-10-23T20:22:55.324Z,99031.22
2022-10-23T20:25:24.309Z,99038.16
2022-10-23T20:27:53.254Z,99039.88
2022-10-23T20:30:21.743Z,99042.50
2022-10-23T20:32:50.231Z,99038.16
2022-10-23T20:35:19.051Z,99044.25
2022-10-23T20:37:47.593Z,99059.03
2022-10-23T20:40:17.600Z,99053.84
2022-10-23T20:42:46.170Z,99062.56
2022-10-23T20:45:14.613Z,99057.31
2022-10-23T20:47:43.771Z,99073.00
2022-10-23T20:50:12.591Z,99097.34
2022-10-23T20:52:41.404Z,99109.56
2022-10-23T20:55:11.163Z,99109.56
2022-10-23T20:57:41.583Z,99120.00
2022-10-23T21:00:12.042Z,99141.75
2022-10-23T21:02:40.750Z,99156.59
2022-10-23T21:05:10.402Z,99167.88
2022-10-23T21:07:38.802Z,99187.06
2022-10-23T21:10:08.835Z,99189.66
2022-10-23T21:12:37.140Z,99191.41
2022-10-23T21:15:10.539Z,99200.13
2022-10-23T21:17:40.826Z,99193.16
2022-10-23T21:20:10.345Z,99171.41
2022-10-23T21:22:38.868Z,99153.13
2022-10-23T21:25:08.992Z,99147.94
2022-10-23T21:27:37.510Z,99142.72
2022-10-23T21:30:09.803Z,99146.25
2022-10-23T21:32:40.241Z,99127.94
2022-10-23T21:35:11.241Z,99137.56
2022-10-23T21:37:39.710Z,99146.25
2022-10-23T21:40:10.473Z,99148.88
2022-10-23T21:42:38.960Z,99141.91
2022-10-23T21:45:10.564Z,99147.16
2022-10-23T21:47:39.735Z,99148.88
2022-10-23T21:50:09.363Z,99150.59
2022-10-23T21:52:37.928Z,99142.78
2022-10-23T21:55:07.344Z,99143.63
2022-10-23T21:57:35.955Z,99138.41
2022-10-23T22:00:09.189Z,99154.06
2022-10-23T22:02:41.213Z,99155.78
2022-10-23T22:05:10.076Z,99146.19
2022-10-23T22:07:38.479Z,99147.03
2022-10-23T22:10:08.567Z,99150.56
2022-10-23T22:12:37.070Z,99150.53
2022-10-23T22:15:06.698Z,99144.41
2022-10-23T22:17:38.479Z,99144.38
2022-10-23T22:20:08.934Z,99135.66
2022-10-23T22:22:37.429Z,99149.59
2022-10-23T22:25:07.534Z,99144.34
2022-10-23T22:27:35.919Z,99134.75
2022-10-23T22:30:04.664Z,99143.47
2022-10-23T22:32:33.116Z,99141.72
2022-10-23T22:35:03.051Z,99139.97
2022-10-23T22:37:31.447Z,99123.38
2022-10-23T22:40:01.073Z,99130.31
2022-10-23T22:42:31.138Z,99125.94
2022-10-23T22:44:59.585Z,99121.59
2022-10-23T22:47:30.265Z,99123.31
2022-10-23T22:49:58.992Z,99132.91
2022-10-23T22:52:29.060Z,99130.31
2022-10-23T22:54:57.508Z,99132.00
2022-10-23T22:59:55.259Z,99126.78
2022-10-23T23:02:23.683Z,99129.38
2022-10-23T23:04:52.241Z,99124.13
2022-10-23T23:07:20.638Z,99132.84
2022-10-23T23:09:50.942Z,99132.84
2022-10-23T23:12:20.177Z,99129.28
2022-10-23T23:14:48.906Z,99124.13
2022-10-23T23:17:17.453Z,99123.22
2022-10-23T23:19:48.580Z,99124.13
2022-10-23T23:22:16.985Z,99123.22
2022-10-23T23:24:45.468Z,99129.34
2022-10-23T23:27:15.308Z,99121.53
2022-10-23T23:29:43.698Z,99116.31
2022-10-23T23:32:12.225Z,99125.00
2022-10-23T23:34:40.664Z,99118.00
2022-10-23T23:37:08.995Z,99119.78
2022-10-23T23:39:37.373Z,99118.91
2022-10-23T23:42:06.259Z,99123.22
2022-10-23T23:44:41.968Z,99123.28
2022-10-23T23:47:19.235Z,99120.59
2022-10-23T23:49:47.559Z,99117.13
2022-10-23T23:52:15.878Z,99119.72
2022-10-23T23:54:44.200Z,99110.97
2022-10-23T23:57:12.828Z,99111.84
2022-10-23T23:59:43.457Z,99105.75
